Time;durP1;ratioP1;P1;durP2;ratioP2;P2;SDS_P1;SDS_P2;PMS_P1;PMS_P2;Temp;Humidity;BMP_temperature;BMP_pressure;BME280_temperature;BME280_humidity;BME280_pressure;Samples;Min_cycle;Max_cycle;Signal;HPM_P1;HPM_P2
2021/05/21 00:02:08;;;;;;;8.15;6.00;;;;;;;;;;4997692;28;20045;-85
2021/05/21 00:04:34;;;;;;;7.53;5.93;;;;;;;;;;4996869;28;20035;-85
2021/05/21 00:07:00;;;;;;;7.55;6.22;;;;;;;;;;4996908;28;20026;-85
2021/05/21 00:09:26;;;;;;;6.95;5.85;;;;;;;;;;4998010;28;20025;-85
2021/05/21 00:11:52;;;;;;;6.38;5.75;;;;;;;;;;4998092;28;20118;-85
2021/05/21 00:14:34;;;;;;;8.90;6.45;;;;;;;;;;4996830;28;20060;-85
2021/05/21 00:17:00;;;;;;;8.00;6.20;;;;;;;;;;4996763;28;20034;-86
2021/05/21 00:19:26;;;;;;;8.82;6.07;;;;;;;;;;4996692;28;20041;-86
2021/05/21 00:21:52;;;;;;;7.47;6.18;;;;;;;;;;4997910;28;20026;-85
2021/05/21 00:24:18;;;;;;;8.07;6.05;;;;;;;;;;4997721;28;20105;-86
2021/05/21 00:26:44;;;;;;;10.30;5.97;;;;;;;;;;4997611;28;20074;-86
2021/05/21 00:35:17;;;;;;;7.50;6.03;;;;;;;;;;4994709;28;20093;-86
2021/05/21 00:37:43;;;;;;;7.80;6.32;;;;;;;;;;4997629;28;20030;-86
2021/05/21 00:40:09;;;;;;;9.50;6.60;;;;;;;;;;4997543;28;20041;-86
2021/05/21 00:42:37;;;;;;;6.75;5.95;;;;;;;;;;4997580;28;20041;-85
2021/05/21 00:45:03;;;;;;;9.93;5.72;;;;;;;;;;4997819;28;20033;-85
2021/05/21 00:47:29;;;;;;;9.10;5.72;;;;;;;;;;4997376;28;20022;-85
2021/05/21 00:49:56;;;;;;;10.48;6.40;;;;;;;;;;5001294;28;20018;-85
2021/05/21 00:52:22;;;;;;;8.27;6.25;;;;;;;;;;5000955;28;20027;-86
2021/05/21 00:54:49;;;;;;;8.00;6.00;;;;;;;;;;5000949;28;20117;-85
2021/05/21 00:57:15;;;;;;;7.20;5.90;;;;;;;;;;5001124;28;20194;-85
2021/05/21 01:05:48;;;;;;;8.57;5.90;;;;;;;;;;5000956;28;20068;-86
2021/05/21 01:08:15;;;;;;;7.78;5.93;;;;;;;;;;5001020;28;20027;-87
2021/05/21 01:10:41;;;;;;;6.05;5.45;;;;;;;;;;5000912;28;20019;-87
2021/05/21 01:13:08;;;;;;;9.88;5.85;;;;;;;;;;5001261;28;20026;-87
2021/05/21 01:15:41;;;;;;;10.23;5.80;;;;;;;;;;5000845;28;20077;-87
2021/05/21 01:18:08;;;;;;;9.45;5.80;;;;;;;;;;5000049;28;20061;-87
2021/05/21 01:20:34;;;;;;;8.32;5.70;;;;;;;;;;5000340;28;20031;-87
2021/05/21 01:23:01;;;;;;;10.00;5.90;;;;;;;;;;5000365;28;20031;-87
2021/05/21 01:25:27;;;;;;;8.27;6.22;;;;;;;;;;5000100;28;20435;-87
2021/05/21 01:27:58;;;;;;;6.80;6.10;;;;;;;;;;4999534;28;20030;-88
2021/05/21 01:30:24;;;;;;;8.95;6.32;;;;;;;;;;4999170;28;20030;-87
2021/05/21 01:32:51;;;;;;;7.18;6.00;;;;;;;;;;5000384;28;20026;-87
2021/05/21 01:35:18;;;;;;;7.38;6.22;;;;;;;;;;5000094;28;20050;-87
2021/05/21 01:37:45;;;;;;;6.75;5.93;;;;;;;;;;5000235;28;20053;-88
2021/05/21 01:40:12;;;;;;;7.68;5.65;;;;;;;;;;5000126;28;20039;-87
2021/05/21 01:42:38;;;;;;;10.57;6.47;;;;;;;;;;4999046;28;20077;-87
2021/05/21 01:45:05;;;;;;;11.13;8.80;;;;;;;;;;4999977;28;20113;-87
2021/05/21 01:47:31;;;;;;;10.52;6.85;;;;;;;;;;4999048;28;20033;-87
2021/05/21 01:49:57;;;;;;;11.73;10.52;;;;;;;;;;4999990;28;20033;-87
2021/05/21 01:52:23;;;;;;;12.32;11.13;;;;;;;;;;5000225;28;20313;-87
2021/05/21 01:54:49;;;;;;;12.57;9.57;;;;;;;;;;5000125;28;20034;-88
2021/05/21 01:57:16;;;;;;;7.57;6.82;;;;;;;;;;4999815;28;20032;-87
2021/05/21 01:59:42;;;;;;;7.68;6.35;;;;;;;;;;4999273;28;20027;-86
2021/05/21 02:02:11;;;;;;;10.98;6.07;;;;;;;;;;4999538;28;20082;-86
2021/05/21 02:04:38;;;;;;;9.88;6.55;;;;;;;;;;5000028;28;20046;-86
2021/05/21 02:07:05;;;;;;;9.80;6.65;;;;;;;;;;4999659;28;20452;-87
2021/05/21 02:09:54;;;;;;;10.13;6.60;;;;;;;;;;4998586;28;20035;-86
2021/05/21 02:12:22;;;;;;;9.65;6.80;;;;;;;;;;4921118;29;20042;-86
2021/05/21 02:14:48;;;;;;;13.48;6.80;;;;;;;;;;4921056;29;20036;-86
2021/05/21 02:17:14;;;;;;;7.95;6.85;;;;;;;;;;4920880;29;20040;-86
2021/05/21 02:19:40;;;;;;;7.72;6.93;;;;;;;;;;4920913;29;20156;-86
2021/05/21 02:22:07;;;;;;;11.88;7.13;;;;;;;;;;4920521;29;20028;-86
2021/05/21 02:24:33;;;;;;;8.15;6.43;;;;;;;;;;4920795;29;20039;-86
2021/05/21 02:26:59;;;;;;;7.07;6.38;;;;;;;;;;4920728;29;20059;-86
2021/05/21 02:29:25;;;;;;;8.85;6.68;;;;;;;;;;4920556;29;20032;-85
2021/05/21 02:31:51;;;;;;;7.38;6.60;;;;;;;;;;4920515;29;20039;-85
2021/05/21 02:34:17;;;;;;;7.90;6.28;;;;;;;;;;4920456;29;20059;-85
2021/05/21 02:36:43;;;;;;;7.95;5.78;;;;;;;;;;4920440;29;20043;-86
2021/05/21 02:39:09;;;;;;;8.20;5.88;;;;;;;;;;4920528;29;20036;-86
2021/05/21 02:41:35;;;;;;;8.75;6.15;;;;;;;;;;4920479;29;20028;-86
2021/05/21 02:44:02;;;;;;;8.27;6.03;;;;;;;;;;4920411;29;20067;-86
2021/05/21 02:46:28;;;;;;;12.45;6.75;;;;;;;;;;4920186;29;20066;-85
2021/05/21 02:48:54;;;;;;;8.10;6.22;;;;;;;;;;4947136;28;20026;-85
2021/05/21 02:51:20;;;;;;;12.40;6.85;;;;;;;;;;4998981;28;20032;-86
2021/05/21 02:53:46;;;;;;;8.85;6.38;;;;;;;;;;4998737;28;20083;-86
2021/05/21 02:56:12;;;;;;;14.45;9.55;;;;;;;;;;4998490;28;20034;-86
2021/05/21 02:58:38;;;;;;;10.25;7.85;;;;;;;;;;4997710;28;20113;-85
2021/05/21 03:01:19;;;;;;;7.10;6.40;;;;;;;;;;4997420;28;20443;-86
2021/05/21 03:03:45;;;;;;;9.93;6.20;;;;;;;;;;4998776;28;20125;-88
2021/05/21 03:06:11;;;;;;;8.00;5.95;;;;;;;;;;4997567;28;20037;-88
2021/05/21 03:08:38;;;;;;;7.82;6.10;;;;;;;;;;4998533;28;20042;-89
2021/05/21 03:11:04;;;;;;;6.70;6.00;;;;;;;;;;4997703;28;20406;-88
2021/05/21 03:13:30;;;;;;;12.63;6.28;;;;;;;;;;4998857;28;20030;-87
2021/05/21 03:19:00;;;;;;;8.27;6.03;;;;;;;;;;4998386;28;20093;-88
2021/05/21 03:21:26;;;;;;;8.65;6.03;;;;;;;;;;4998549;28;20018;-87
2021/05/21 03:23:52;;;;;;;11.00;5.85;;;;;;;;;;4997192;28;20026;-87
2021/05/21 03:26:18;;;;;;;10.55;6.00;;;;;;;;;;4998212;28;20069;-86
2021/05/21 03:28:44;;;;;;;10.07;6.03;;;;;;;;;;4996863;28;20038;-86
2021/05/21 03:34:14;;;;;;;7.43;5.93;;;;;;;;;;4995010;28;20429;-86
2021/05/21 03:36:40;;;;;;;6.05;5.43;;;;;;;;;;4998333;28;20034;-85
2021/05/21 03:39:07;;;;;;;9.00;5.70;;;;;;;;;;4996775;28;20057;-85
2021/05/21 03:41:33;;;;;;;7.57;5.63;;;;;;;;;;4997891;28;20496;-85
2021/05/21 03:47:40;;;;;;;8.55;5.53;;;;;;;;;;4998236;28;20017;-86
2021/05/21 03:50:06;;;;;;;7.57;5.50;;;;;;;;;;4996930;28;20050;-86
2021/05/21 03:52:33;;;;;;;8.52;5.90;;;;;;;;;;4997111;28;20031;-86
2021/05/21 03:54:59;;;;;;;6.03;5.20;;;;;;;;;;4998336;28;20077;-85
2021/05/21 03:57:25;;;;;;;6.00;5.40;;;;;;;;;;4996660;28;20031;-86
2021/05/21 04:05:58;;;;;;;6.38;5.03;;;;;;;;;;4997703;28;20072;-85
2021/05/21 04:08:24;;;;;;;8.30;5.43;;;;;;;;;;4997730;28;20023;-85
2021/05/21 04:10:50;;;;;;;9.30;5.90;;;;;;;;;;4997863;28;20035;-85
2021/05/21 04:13:16;;;;;;;10.65;5.22;;;;;;;;;;4996780;28;20340;-86
2021/05/21 04:15:42;;;;;;;9.73;5.47;;;;;;;;;;4998052;28;20049;-85
2021/05/21 04:18:10;;;;;;;7.05;6.35;;;;;;;;;;4996258;28;20045;-85
2021/05/21 04:20:36;;;;;;;9.93;5.63;;;;;;;;;;4997856;28;20105;-86
2021/05/21 04:23:03;;;;;;;8.48;5.85;;;;;;;;;;5000994;28;20419;-86
2021/05/21 04:25:29;;;;;;;8.90;5.80;;;;;;;;;;5001671;28;20444;-87
2021/05/21 04:27:55;;;;;;;8.70;5.93;;;;;;;;;;5001641;28;20057;-87
2021/05/21 04:33:40;;;;;;;9.43;5.85;;;;;;;;;;5001635;28;20038;-86
2021/05/21 04:36:06;;;;;;;10.17;6.30;;;;;;;;;;4962443;28;20054;-85
2021/05/21 04:38:33;;;;;;;7.50;5.95;;;;;;;;;;4962585;28;20242;-86
2021/05/21 04:40:59;;;;;;;9.40;6.07;;;;;;;;;;4962592;28;20034;-86
2021/05/21 04:43:26;;;;;;;9.27;5.38;;;;;;;;;;4962158;28;20062;-87
2021/05/21 04:45:52;;;;;;;8.45;6.20;;;;;;;;;;4962275;28;20026;-87
2021/05/21 04:48:18;;;;;;;16.10;7.13;;;;;;;;;;4962442;28;20046;-84
2021/05/21 04:50:45;;;;;;;8.02;5.63;;;;;;;;;;4962193;28;20102;-84
2021/05/21 04:53:12;;;;;;;6.78;5.90;;;;;;;;;;4962419;28;20034;-84
2021/05/21 04:55:38;;;;;;;7.85;5.95;;;;;;;;;;4962355;28;20024;-85
2021/05/21 04:58:04;;;;;;;13.43;6.30;;;;;;;;;;4961940;28;20034;-85
2021/05/21 05:00:50;;;;;;;9.60;6.30;;;;;;;;;;4962018;28;20041;-85
2021/05/21 05:03:20;;;;;;;7.32;5.38;;;;;;;;;;4961700;28;20032;-87
2021/05/21 05:05:47;;;;;;;8.27;5.53;;;;;;;;;;4961953;28;20038;-88
2021/05/21 05:08:17;;;;;;;8.60;6.90;;;;;;;;;;4961914;28;20027;-87
2021/05/21 05:10:46;;;;;;;11.15;7.63;;;;;;;;;;4961881;28;20402;-87
2021/05/21 05:13:13;;;;;;;8.45;6.40;;;;;;;;;;4962264;28;20035;-86
2021/05/21 05:15:39;;;;;;;9.10;5.85;;;;;;;;;;4962160;28;20027;-87
2021/05/21 05:18:06;;;;;;;8.38;5.38;;;;;;;;;;4961703;28;20120;-86
2021/05/21 05:20:32;;;;;;;6.10;4.82;;;;;;;;;;4960794;29;20034;-86
2021/05/21 05:22:58;;;;;;;6.78;5.85;;;;;;;;;;4961673;28;20035;-86
2021/05/21 05:25:24;;;;;;;7.38;5.68;;;;;;;;;;4962021;28;20027;-86
2021/05/21 05:27:51;;;;;;;7.20;5.40;;;;;;;;;;4961769;28;20027;-86
2021/05/21 05:30:35;;;;;;;9.32;5.70;;;;;;;;;;4961119;28;20307;-86
2021/05/21 05:33:01;;;;;;;9.05;5.32;;;;;;;;;;4941386;29;20039;-86
2021/05/21 05:35:27;;;;;;;7.57;6.00;;;;;;;;;;4970707;28;20476;-86
2021/05/21 05:37:54;;;;;;;8.52;5.82;;;;;;;;;;4980641;28;20397;-86
2021/05/21 05:40:20;;;;;;;8.10;6.13;;;;;;;;;;4999876;28;20027;-85
2021/05/21 05:42:46;;;;;;;10.52;6.22;;;;;;;;;;4999849;28;20405;-84
2021/05/21 05:45:12;;;;;;;11.10;6.32;;;;;;;;;;4999935;28;20097;-86
2021/05/21 05:47:38;;;;;;;9.73;6.70;;;;;;;;;;4998683;28;20044;-85
2021/05/21 05:50:07;;;;;;;8.55;5.78;;;;;;;;;;4999890;28;20026;-86
2021/05/21 05:52:33;;;;;;;7.07;6.15;;;;;;;;;;5000296;28;20105;-85
2021/05/21 05:55:00;;;;;;;9.73;6.22;;;;;;;;;;4999842;28;20152;-86
2021/05/21 05:57:26;;;;;;;7.65;5.85;;;;;;;;;;4999737;28;20041;-86
2021/05/21 05:59:52;;;;;;;7.57;5.70;;;;;;;;;;4998815;28;20077;-88
2021/05/21 06:02:18;;;;;;;9.88;6.72;;;;;;;;;;4999558;28;20026;-90
2021/05/21 06:04:44;;;;;;;7.82;5.75;;;;;;;;;;4998117;28;20039;-77
2021/05/21 06:07:10;;;;;;;9.80;6.57;;;;;;;;;;4999097;28;20054;-73
2021/05/21 06:09:36;;;;;;;10.13;5.93;;;;;;;;;;4998818;28;20026;-73
2021/05/21 06:12:02;;;;;;;8.57;6.43;;;;;;;;;;4999054;28;20297;-73
2021/05/21 06:14:28;;;;;;;7.85;6.05;;;;;;;;;;4995244;28;20038;-73
2021/05/21 06:16:54;;;;;;;9.60;6.80;;;;;;;;;;4978744;28;20026;-73
2021/05/21 06:19:20;;;;;;;8.10;6.50;;;;;;;;;;4979320;28;20035;-73
2021/05/21 06:21:46;;;;;;;11.35;7.18;;;;;;;;;;4979306;28;20038;-73
2021/05/21 06:24:14;;;;;;;8.10;6.18;;;;;;;;;;4982718;28;20026;-73
2021/05/21 06:27:15;;;;;;;6.95;6.22;;;;;;;;;;4998774;28;20027;-73
2021/05/21 06:29:29;;;;;;;11.02;6.88;;;;;;;;;;4998399;28;20029;-73
2021/05/21 06:31:55;;;;;;;9.80;7.13;;;;;;;;;;4998326;28;20393;-73
2021/05/21 06:34:22;;;;;;;10.40;7.28;;;;;;;;;;4998410;28;20081;-73
2021/05/21 06:36:48;;;;;;;11.45;7.63;;;;;;;;;;4998399;28;20032;-74
2021/05/21 06:39:14;;;;;;;10.88;8.40;;;;;;;;;;4998373;28;20047;-73
2021/05/21 06:41:40;;;;;;;27.08;15.05;;;;;;;;;;4998490;28;20040;-73
2021/05/21 06:44:06;;;;;;;16.85;11.07;;;;;;;;;;4998402;28;20052;-74
2021/05/21 06:46:32;;;;;;;13.55;7.55;;;;;;;;;;4998262;28;20023;-74
2021/05/21 06:48:58;;;;;;;16.85;8.30;;;;;;;;;;4998697;28;20305;-73
2021/05/21 06:51:24;;;;;;;15.60;11.10;;;;;;;;;;4998259;28;20431;-73
2021/05/21 06:53:50;;;;;;;9.75;7.22;;;;;;;;;;4998464;28;20356;-73
2021/05/21 06:56:16;;;;;;;7.95;6.43;;;;;;;;;;4998377;28;20034;-74
2021/05/21 06:58:43;;;;;;;9.10;6.40;;;;;;;;;;4998384;28;20054;-73
2021/05/21 07:01:09;;;;;;;9.07;6.57;;;;;;;;;;4997226;28;20294;-73
2021/05/21 07:03:35;;;;;;;13.13;9.02;;;;;;;;;;4997884;28;20030;-74
2021/05/21 07:06:01;;;;;;;12.73;9.20;;;;;;;;;;4997973;28;20027;-74
2021/05/21 07:08:28;;;;;;;15.02;11.38;;;;;;;;;;4997007;28;20129;-73
2021/05/21 07:10:54;;;;;;;18.50;13.38;;;;;;;;;;4997996;28;20034;-74
2021/05/21 07:13:21;;;;;;;20.52;13.38;;;;;;;;;;4997933;28;20113;-74
2021/05/21 07:15:47;;;;;;;17.15;12.85;;;;;;;;;;4997877;28;20026;-73
2021/05/21 07:18:13;;;;;;;12.73;10.45;;;;;;;;;;4997589;28;20022;-73
2021/05/21 07:20:45;;;;;;;6.72;6.03;;;;;;;;;;4997750;28;20033;-73
2021/05/21 07:23:11;;;;;;;11.43;8.40;;;;;;;;;;4997580;28;20065;-73
2021/05/21 07:25:39;;;;;;;8.13;7.28;;;;;;;;;;4997881;28;20046;-73
2021/05/21 07:28:05;;;;;;;11.48;8.02;;;;;;;;;;4997726;28;20031;-74
2021/05/21 07:30:31;;;;;;;12.27;7.18;;;;;;;;;;4997456;28;20029;-73
2021/05/21 07:32:57;;;;;;;8.93;6.80;;;;;;;;;;4997525;28;20058;-73
2021/05/21 07:35:24;;;;;;;13.15;10.52;;;;;;;;;;4997458;28;20051;-73
2021/05/21 07:37:50;;;;;;;11.90;8.88;;;;;;;;;;4997489;28;20125;-74
2021/05/21 07:40:18;;;;;;;11.07;7.18;;;;;;;;;;4997452;28;20022;-73
2021/05/21 07:42:44;;;;;;;11.77;7.28;;;;;;;;;;4997442;28;20425;-73
2021/05/21 07:45:11;;;;;;;7.15;6.28;;;;;;;;;;4997402;28;20030;-73
2021/05/21 07:47:37;;;;;;;8.07;6.80;;;;;;;;;;4996954;28;20372;-73
2021/05/21 07:50:04;;;;;;;8.43;6.18;;;;;;;;;;4997401;28;20029;-73
2021/05/21 07:52:30;;;;;;;10.88;7.32;;;;;;;;;;4996809;28;20496;-73
2021/05/21 07:54:56;;;;;;;14.10;8.77;;;;;;;;;;4997009;28;20428;-73
2021/05/21 07:57:24;;;;;;;10.65;7.30;;;;;;;;;;4999956;28;20416;-73
2021/05/21 07:59:50;;;;;;;23.60;15.95;;;;;;;;;;5000749;28;20042;-74
2021/05/21 08:02:16;;;;;;;16.05;11.95;;;;;;;;;;5001197;28;20058;-73
2021/05/21 08:04:42;;;;;;;14.15;9.07;;;;;;;;;;5001115;28;20022;-74
2021/05/21 08:07:08;;;;;;;8.15;7.20;;;;;;;;;;5001187;28;20030;-74
2021/05/21 08:09:40;;;;;;;9.05;6.40;;;;;;;;;;5001474;28;20077;-73
2021/05/21 08:12:07;;;;;;;8.27;6.50;;;;;;;;;;5001252;28;20025;-73
2021/05/21 08:14:33;;;;;;;13.68;10.60;;;;;;;;;;5001205;28;20030;-74
2021/05/21 08:16:59;;;;;;;10.82;6.60;;;;;;;;;;5000756;28;20439;-73
2021/05/21 08:19:25;;;;;;;8.23;6.90;;;;;;;;;;5001106;28;20049;-73
2021/05/21 08:21:52;;;;;;;9.48;7.35;;;;;;;;;;5001048;28;20033;-73
2021/05/21 08:24:18;;;;;;;10.02;7.00;;;;;;;;;;5001255;28;20065;-73
2021/05/21 08:26:44;;;;;;;8.13;5.50;;;;;;;;;;5001069;28;20027;-73
2021/05/21 08:29:10;;;;;;;12.48;7.15;;;;;;;;;;5001073;28;20019;-73
2021/05/21 08:31:37;;;;;;;10.55;9.20;;;;;;;;;;5001012;28;20101;-74
2021/05/21 08:34:03;;;;;;;19.45;14.20;;;;;;;;;;5000584;28;20046;-73
2021/05/21 08:36:30;;;;;;;11.00;7.85;;;;;;;;;;5000464;28;20034;-74
2021/05/21 08:38:56;;;;;;;7.63;6.60;;;;;;;;;;5000643;28;20030;-73
2021/05/21 08:41:29;;;;;;;12.18;6.85;;;;;;;;;;5000845;28;20030;-73
2021/05/21 08:43:56;;;;;;;13.60;10.07;;;;;;;;;;5000632;28;20053;-73
2021/05/21 08:46:22;;;;;;;10.63;6.53;;;;;;;;;;5000434;28;20033;-73
2021/05/21 08:48:49;;;;;;;10.32;5.97;;;;;;;;;;5000528;28;20023;-73
2021/05/21 08:51:15;;;;;;;7.90;5.30;;;;;;;;;;5000481;28;20023;-73
2021/05/21 08:53:42;;;;;;;9.68;8.07;;;;;;;;;;5000443;28;20022;-73
2021/05/21 08:56:09;;;;;;;12.57;6.03;;;;;;;;;;5000360;28;20113;-73
2021/05/21 08:58:35;;;;;;;10.85;7.03;;;;;;;;;;5000573;28;20413;-74
2021/05/21 09:01:02;;;;;;;9.25;6.10;;;;;;;;;;5000254;28;20033;-73
2021/05/21 09:03:29;;;;;;;11.52;7.05;;;;;;;;;;5000435;28;20030;-73
2021/05/21 09:06:13;;;;;;;8.93;4.75;;;;;;;;;;5000141;28;20026;-73
2021/05/21 09:08:44;;;;;;;7.22;5.07;;;;;;;;;;4999119;28;20029;-73
2021/05/21 09:11:23;;;;;;;31.88;21.67;;;;;;;;;;4998863;28;20038;-74
2021/05/21 09:13:53;;;;;;;24.33;15.88;;;;;;;;;;5000078;28;20086;-73
2021/05/21 09:16:26;;;;;;;7.18;5.82;;;;;;;;;;4999953;28;20030;-73
2021/05/21 09:19:02;;;;;;;7.25;6.50;;;;;;;;;;4999905;28;20397;-73
2021/05/21 09:21:47;;;;;;;7.18;5.10;;;;;;;;;;4998254;28;20022;-74
2021/05/21 09:24:14;;;;;;;7.30;5.40;;;;;;;;;;4999671;28;20034;-73
2021/05/21 09:26:43;;;;;;;14.10;9.35;;;;;;;;;;4999576;28;20038;-73
2021/05/21 09:29:11;;;;;;;12.02;5.93;;;;;;;;;;4999571;28;20033;-74
2021/05/21 09:31:48;;;;;;;8.48;6.05;;;;;;;;;;4999400;28;20030;-73
2021/05/21 09:34:15;;;;;;;7.88;5.30;;;;;;;;;;4999534;28;20469;-73
2021/05/21 09:36:42;;;;;;;7.28;6.40;;;;;;;;;;4999559;28;20045;-73
2021/05/21 09:39:12;;;;;;;10.52;7.85;;;;;;;;;;4998332;28;20066;-74
2021/05/21 09:41:49;;;;;;;9.65;7.60;;;;;;;;;;4999215;28;20405;-73
2021/05/21 09:44:15;;;;;;;9.95;6.10;;;;;;;;;;4998796;28;20053;-74
2021/05/21 09:46:47;;;;;;;8.23;5.78;;;;;;;;;;4999276;28;20312;-73
2021/05/21 09:49:34;;;;;;;5.82;5.00;;;;;;;;;;4999248;28;20065;-73
2021/05/21 09:52:01;;;;;;;6.25;5.57;;;;;;;;;;4998998;28;20023;-73
2021/05/21 09:54:28;;;;;;;6.70;5.80;;;;;;;;;;4999029;28;20459;-73
2021/05/21 09:57:20;;;;;;;11.98;8.45;;;;;;;;;;4999241;28;20086;-73
2021/05/21 09:59:47;;;;;;;6.88;6.18;;;;;;;;;;4997155;28;20417;-73
2021/05/21 10:02:24;;;;;;;8.73;7.03;;;;;;;;;;4998722;28;20038;-73
2021/05/21 10:04:51;;;;;;;10.75;9.20;;;;;;;;;;4998926;28;20488;-74
2021/05/21 10:07:17;;;;;;;6.95;4.47;;;;;;;;;;4998985;28;20078;-73
2021/05/21 10:09:44;;;;;;;8.32;5.35;;;;;;;;;;4999270;28;20026;-73
2021/05/21 10:12:10;;;;;;;6.70;5.05;;;;;;;;;;4998932;28;20121;-73
2021/05/21 10:14:36;;;;;;;8.77;7.03;;;;;;;;;;4997736;28;20069;-73
2021/05/21 10:17:03;;;;;;;9.40;7.00;;;;;;;;;;4998773;28;20078;-73
2021/05/21 10:19:29;;;;;;;10.18;7.00;;;;;;;;;;4998480;28;20022;-73
2021/05/21 10:21:55;;;;;;;9.43;6.53;;;;;;;;;;4998666;28;20026;-73
2021/05/21 10:24:28;;;;;;;10.05;7.88;;;;;;;;;;4998725;28;20026;-74
2021/05/21 10:26:55;;;;;;;7.15;5.55;;;;;;;;;;4998643;28;20294;-74
2021/05/21 10:29:22;;;;;;;7.38;6.65;;;;;;;;;;4998772;28;20073;-73
2021/05/21 10:31:51;;;;;;;6.30;5.43;;;;;;;;;;4998538;28;20027;-73
2021/05/21 10:34:18;;;;;;;9.00;7.10;;;;;;;;;;4997485;28;20046;-74
2021/05/21 10:36:45;;;;;;;12.38;9.55;;;;;;;;;;4998427;28;20114;-73
2021/05/21 10:39:13;;;;;;;7.07;3.63;;;;;;;;;;4998438;28;20093;-73
2021/05/21 10:41:39;;;;;;;6.63;3.67;;;;;;;;;;4998389;28;20030;-73
2021/05/21 10:44:32;;;;;;;6.32;4.72;;;;;;;;;;4998372;28;20034;-73
2021/05/21 10:47:16;;;;;;;3.78;3.38;;;;;;;;;;4996489;28;20085;-73
2021/05/21 10:49:51;;;;;;;3.83;2.80;;;;;;;;;;4998470;28;20050;-73
2021/05/21 10:52:22;;;;;;;6.45;4.88;;;;;;;;;;4998360;28;20105;-73
2021/05/21 10:54:52;;;;;;;6.45;4.32;;;;;;;;;;4998177;28;20045;-74
2021/05/21 10:57:19;;;;;;;3.88;1.77;;;;;;;;;;4998241;28;20026;-73
2021/05/21 11:02:24;;;;;;;8.60;4.30;;;;;;;;;;4997990;28;20058;-74
2021/05/21 11:04:51;;;;;;;6.63;4.25;;;;;;;;;;4997996;28;20065;-73
2021/05/21 11:07:33;;;;;;;9.45;6.22;;;;;;;;;;4998010;28;20041;-72
2021/05/21 11:10:00;;;;;;;5.25;3.78;;;;;;;;;;4998108;28;20019;-73
2021/05/21 11:12:42;;;;;;;11.18;8.32;;;;;;;;;;4998093;28;20023;-72
2021/05/21 11:15:08;;;;;;;;;;;;;;;;;;4998134;28;20034;-73
2021/05/21 11:17:34;;;;;;;17.83;12.20;;;;;;;;;;4997741;28;19906;-73
2021/05/21 11:20:01;;;;;;;8.73;5.22;;;;;;;;;;4997766;28;20030;-73
2021/05/21 11:22:27;;;;;;;6.82;4.60;;;;;;;;;;4997611;28;20053;-73
2021/05/21 11:24:58;;;;;;;2.67;1.45;;;;;;;;;;4997853;28;20029;-73
2021/05/21 11:27:24;;;;;;;2.30;1.30;;;;;;;;;;4996765;28;20325;-73
2021/05/21 11:29:51;;;;;;;3.85;1.65;;;;;;;;;;4997765;28;20046;-73
2021/05/21 11:32:18;;;;;;;3.60;1.60;;;;;;;;;;4996936;28;20034;-73
2021/05/21 11:34:44;;;;;;;5.50;3.03;;;;;;;;;;4997483;28;20050;-72
2021/05/21 11:37:14;;;;;;;6.75;3.45;;;;;;;;;;4996619;28;20045;-73
2021/05/21 11:39:40;;;;;;;3.83;1.63;;;;;;;;;;4997271;28;20030;-73
2021/05/21 11:42:07;;;;;;;3.55;1.45;;;;;;;;;;4997635;28;20316;-73
2021/05/21 11:44:33;;;;;;;3.03;2.10;;;;;;;;;;4997712;28;20022;-73
2021/05/21 11:47:06;;;;;;;5.00;2.03;;;;;;;;;;4997532;28;20029;-73
2021/05/21 11:49:33;;;;;;;3.35;2.28;;;;;;;;;;4997503;28;20029;-74
2021/05/21 11:52:02;;;;;;;5.53;1.50;;;;;;;;;;4997435;28;20072;-73
2021/05/21 11:54:29;;;;;;;8.55;4.78;;;;;;;;;;4997443;28;20027;-73
2021/05/21 11:56:56;;;;;;;9.63;2.67;;;;;;;;;;4997341;28;20109;-73
2021/05/21 11:59:23;;;;;;;2.53;1.80;;;;;;;;;;4997466;28;20409;-73
2021/05/21 12:01:56;;;;;;;6.32;3.10;;;;;;;;;;4997461;28;20030;-73
2021/05/21 12:04:23;;;;;;;2.78;2.25;;;;;;;;;;4997255;28;20392;-73
2021/05/21 12:06:51;;;;;;;1.50;1.30;;;;;;;;;;4997208;28;20306;-73
2021/05/21 12:09:21;;;;;;;2.20;1.67;;;;;;;;;;4997439;28;20321;-73
2021/05/21 12:11:48;;;;;;;3.40;1.80;;;;;;;;;;4997265;28;20044;-73
2021/05/21 12:14:15;;;;;;;3.72;1.77;;;;;;;;;;4997261;28;20435;-73
2021/05/21 12:16:42;;;;;;;5.68;2.25;;;;;;;;;;4997098;28;20027;-73
2021/05/21 12:19:09;;;;;;;4.40;2.78;;;;;;;;;;4997214;28;20023;-74
2021/05/21 12:21:37;;;;;;;7.90;1.80;;;;;;;;;;4997404;28;20030;-73
2021/05/21 12:24:03;;;;;;;2.85;1.73;;;;;;;;;;4997214;28;20026;-74
2021/05/21 12:26:31;;;;;;;45.42;30.50;;;;;;;;;;4997210;28;20034;-74
2021/05/21 12:28:58;;;;;;;9.43;7.15;;;;;;;;;;4997050;28;20022;-73
2021/05/21 12:31:26;;;;;;;8.27;3.78;;;;;;;;;;4997062;28;20122;-74
2021/05/21 12:33:52;;;;;;;4.38;3.03;;;;;;;;;;4997014;28;20023;-74
2021/05/21 12:36:18;;;;;;;6.28;3.92;;;;;;;;;;4997151;28;20046;-74
2021/05/21 12:38:56;;;;;;;5.68;2.85;;;;;;;;;;4997156;28;20030;-73
2021/05/21 12:41:26;;;;;;;19.38;14.73;;;;;;;;;;4997104;28;20054;-73
2021/05/21 12:43:52;;;;;;;16.95;8.68;;;;;;;;;;4999908;28;20033;-73
2021/05/21 12:46:19;;;;;;;7.63;6.03;;;;;;;;;;5000415;28;20058;-73
2021/05/21 12:48:46;;;;;;;3.53;2.50;;;;;;;;;;5000610;28;20026;-73
2021/05/21 12:51:18;;;;;;;2.30;1.55;;;;;;;;;;5000441;28;20401;-74
2021/05/21 12:53:44;;;;;;;1.52;1.30;;;;;;;;;;5000508;28;20027;-73
2021/05/21 12:56:10;;;;;;;4.32;1.50;;;;;;;;;;5000350;28;20448;-74
2021/05/21 12:58:43;;;;;;;4.22;2.10;;;;;;;;;;5000442;28;20073;-74
2021/05/21 13:01:09;;;;;;;6.00;1.75;;;;;;;;;;5000099;28;20413;-73
2021/05/21 13:03:54;;;;;;;5.03;2.00;;;;;;;;;;5000413;28;20050;-74
2021/05/21 13:06:27;;;;;;;4.45;1.75;;;;;;;;;;5000334;28;20037;-73
2021/05/21 13:08:53;;;;;;;3.10;1.63;;;;;;;;;;5000111;28;20022;-73
2021/05/21 13:11:20;;;;;;;3.50;2.00;;;;;;;;;;5000372;28;20022;-73
2021/05/21 13:13:46;;;;;;;3.47;1.60;;;;;;;;;;5000074;28;20026;-73
2021/05/21 13:16:12;;;;;;;3.35;1.80;;;;;;;;;;4998580;28;20034;-73
2021/05/21 13:18:40;;;;;;;2.92;1.70;;;;;;;;;;4999890;28;20313;-73
2021/05/21 13:21:07;;;;;;;3.30;1.80;;;;;;;;;;5000057;28;20018;-74
2021/05/21 13:23:33;;;;;;;2.50;1.40;;;;;;;;;;4999879;28;20291;-73
2021/05/21 13:26:06;;;;;;;1.65;1.35;;;;;;;;;;4999900;28;20019;-73
2021/05/21 13:28:42;;;;;;;2.47;1.50;;;;;;;;;;4999790;28;20030;-74
2021/05/21 13:31:08;;;;;;;2.58;1.45;;;;;;;;;;4999700;28;20050;-73
2021/05/21 13:33:35;;;;;;;4.68;1.40;;;;;;;;;;4999646;28;20332;-73
2021/05/21 13:36:01;;;;;;;3.35;1.58;;;;;;;;;;4999546;28;20042;-73
2021/05/21 13:38:28;;;;;;;4.60;1.70;;;;;;;;;;4999740;28;20034;-73
2021/05/21 13:40:54;;;;;;;2.35;1.20;;;;;;;;;;4999516;28;20022;-74
2021/05/21 13:43:22;;;;;;;4.43;1.67;;;;;;;;;;4999426;28;20455;-74
2021/05/21 13:45:48;;;;;;;1.63;1.10;;;;;;;;;;4999485;28;20405;-74
2021/05/21 13:48:14;;;;;;;3.22;1.75;;;;;;;;;;4999594;28;20045;-74
2021/05/21 13:50:40;;;;;;;1.27;1.00;;;;;;;;;;4998317;28;20036;-74
2021/05/21 13:53:07;;;;;;;1.80;1.23;;;;;;;;;;4999379;28;20026;-74
2021/05/21 13:55:33;;;;;;;2.55;1.25;;;;;;;;;;4998628;28;20037;-74
2021/05/21 13:58:00;;;;;;;1.70;1.10;;;;;;;;;;4999561;28;20110;-74
2021/05/21 14:00:26;;;;;;;2.20;1.10;;;;;;;;;;4999122;28;20033;-74
2021/05/21 14:02:52;;;;;;;2.38;1.10;;;;;;;;;;4999125;28;20294;-74
2021/05/21 14:05:20;;;;;;;4.85;1.50;;;;;;;;;;4999120;28;20057;-74
2021/05/21 14:07:46;;;;;;;1.92;1.10;;;;;;;;;;4999184;28;20041;-74
2021/05/21 14:10:12;;;;;;;2.30;1.10;;;;;;;;;;4999079;28;20019;-74
2021/05/21 14:12:38;;;;;;;3.13;1.25;;;;;;;;;;4998900;28;20074;-74
2021/05/21 14:15:05;;;;;;;3.85;1.65;;;;;;;;;;4998833;28;20034;-74
2021/05/21 14:17:31;;;;;;;3.63;1.30;;;;;;;;;;4998785;28;20036;-74
2021/05/21 14:19:57;;;;;;;2.13;1.38;;;;;;;;;;4997617;28;20034;-74
2021/05/21 14:22:23;;;;;;;1.95;1.20;;;;;;;;;;4998570;28;20073;-74
2021/05/21 14:24:50;;;;;;;3.30;1.38;;;;;;;;;;4998694;28;20061;-74
2021/05/21 14:27:19;;;;;;;2.85;1.10;;;;;;;;;;4998736;28;20049;-74
2021/05/21 14:29:45;;;;;;;4.68;1.40;;;;;;;;;;4998890;28;20364;-74
2021/05/21 14:32:11;;;;;;;1.55;1.20;;;;;;;;;;4997431;28;20062;-74
2021/05/21 14:34:37;;;;;;;2.95;1.35;;;;;;;;;;4998625;28;20065;-74
2021/05/21 14:37:05;;;;;;;28.05;2.92;;;;;;;;;;4998351;28;20027;-74
2021/05/21 14:39:31;;;;;;;2.35;1.13;;;;;;;;;;4998485;28;20412;-74
2021/05/21 14:41:57;;;;;;;2.65;1.40;;;;;;;;;;4998256;28;20309;-74
2021/05/21 14:44:23;;;;;;;2.45;0.98;;;;;;;;;;4998565;28;20015;-74
2021/05/21 14:46:50;;;;;;;2.67;1.15;;;;;;;;;;4997264;28;20026;-74
2021/05/21 14:49:16;;;;;;;1.45;1.20;;;;;;;;;;4998231;28;20310;-74
2021/05/21 14:51:44;;;;;;;2.42;1.35;;;;;;;;;;4998299;28;20018;-74
2021/05/21 14:54:11;;;;;;;2.58;1.20;;;;;;;;;;4998227;28;20440;-73
2021/05/21 14:56:37;;;;;;;4.22;1.33;;;;;;;;;;4998124;28;20026;-74
2021/05/21 14:59:03;;;;;;;1.92;1.10;;;;;;;;;;4998352;28;20030;-74
2021/05/21 15:01:29;;;;;;;3.53;2.33;;;;;;;;;;4998015;28;20472;-74
2021/05/21 15:03:56;;;;;;;11.32;6.88;;;;;;;;;;4998100;28;20041;-74
2021/05/21 15:06:23;;;;;;;5.03;3.38;;;;;;;;;;4997062;28;20031;-74
2021/05/21 15:08:49;;;;;;;5.43;2.53;;;;;;;;;;4997988;28;20018;-74
2021/05/21 15:11:15;;;;;;;3.95;2.85;;;;;;;;;;4997824;28;20101;-74
2021/05/21 15:13:44;;;;;;;6.43;4.72;;;;;;;;;;4997867;28;20030;-74
2021/05/21 15:16:36;;;;;;;8.18;6.10;;;;;;;;;;4998030;28;20073;-74